Time;durP1;ratioP1;P1;durP2;ratioP2;P2;SDS_P1;SDS_P2;PMS_P1;PMS_P2;Temp;Humidity;BMP_temperature;BMP_pressure;BME280_temperature;BME280_humidity;BME280_pressure;Samples;Min_cycle;Max_cycle;Signal;HPM_P1;HPM_P2
2022/10/16 00:01:28;;;;;;;7.60;5.10;;;15.40;1.00;;;;;;5011077;28;21019;-79
2022/10/16 00:03:57;;;;;;;9.33;4.90;;;15.40;1.00;;;;;;5007389;28;20466;-79
2022/10/16 00:06:25;;;;;;;8.63;4.87;;;15.50;1.00;;;;;;5006462;28;20454;-79
2022/10/16 00:08:53;;;;;;;7.80;5.00;;;15.40;1.00;;;;;;5006368;28;20470;-79
2022/10/16 00:11:21;;;;;;;7.77;4.90;;;15.50;1.00;;;;;;5011917;28;20513;-79
2022/10/16 00:13:50;;;;;;;7.70;4.53;;;15.50;1.00;;;;;;5009731;28;20846;-79
2022/10/16 00:16:17;;;;;;;8.40;4.77;;;15.50;1.00;;;;;;5010063;28;20486;-80
2022/10/16 00:18:45;;;;;;;7.63;4.33;;;15.50;1.00;;;;;;5006103;28;20465;-80
2022/10/16 00:21:14;;;;;;;7.93;4.33;;;15.60;1.00;;;;;;5003364;28;20469;-80
2022/10/16 00:23:42;;;;;;;8.87;4.60;;;15.60;1.00;;;;;;5007948;28;20449;-80
2022/10/16 00:26:17;;;;;;;7.87;4.40;;;15.60;1.00;;;;;;5009136;28;20504;-79
2022/10/16 00:28:47;;;;;;;7.27;3.80;;;15.70;1.00;;;;;;5006898;28;20458;-79
2022/10/16 00:31:19;;;;;;;7.40;4.07;;;15.70;1.00;;;;;;5010080;28;20473;-79
2022/10/16 00:33:48;;;;;;;7.60;3.80;;;15.80;1.00;;;;;;5009024;28;20454;-79
2022/10/16 00:36:16;;;;;;;7.87;4.40;;;15.80;1.00;;;;;;5012243;28;20477;-79
2022/10/16 00:38:44;;;;;;;7.13;3.57;;;15.90;1.00;;;;;;5010830;28;20911;-79
2022/10/16 00:41:13;;;;;;;7.90;4.23;;;15.90;1.00;;;;;;5009100;28;20850;-79
2022/10/16 00:43:42;;;;;;;10.80;3.40;;;15.90;1.00;;;;;;5009497;28;20481;-79
2022/10/16 00:46:18;;;;;;;7.90;3.70;;;15.90;1.00;;;;;;5006020;28;20963;-79
2022/10/16 00:48:50;;;;;;;6.97;3.43;;;15.90;1.00;;;;;;5007001;28;20827;-79
2022/10/16 00:51:21;;;;;;;7.33;3.50;;;15.90;1.00;;;;;;5010637;28;21000;-81
2022/10/16 00:53:48;;;;;;;6.23;3.00;;;16.00;1.00;;;;;;5008018;28;20562;-78
2022/10/16 00:56:15;;;;;;;7.53;3.07;;;16.00;1.00;;;;;;5008747;28;20431;-79
2022/10/16 00:58:41;;;;;;;6.93;3.20;;;16.10;1.00;;;;;;5004758;28;20473;-79
2022/10/16 01:01:08;;;;;;;6.70;3.00;;;16.10;1.00;;;;;;5005086;28;20474;-78
2022/10/16 01:03:37;;;;;;;6.27;2.80;;;16.00;1.00;;;;;;5003411;28;20977;-79
2022/10/16 01:06:17;;;;;;;6.83;3.00;;;16.00;1.00;;;;;;5004042;28;20462;-79
2022/10/16 01:08:53;;;;;;;6.50;3.30;;;15.90;1.00;;;;;;5007149;28;20454;-79
2022/10/16 01:11:27;;;;;;;7.17;2.83;;;15.90;1.00;;;;;;5008311;28;20485;-79
2022/10/16 01:13:59;;;;;;;7.70;2.80;;;15.90;1.00;;;;;;5008729;28;20461;-78
2022/10/16 01:16:34;;;;;;;6.20;2.70;;;15.90;1.00;;;;;;5009523;28;20446;-81
2022/10/16 01:19:10;;;;;;;6.30;2.90;;;15.90;1.00;;;;;;5006216;28;20457;-80
2022/10/16 01:21:42;;;;;;;6.10;2.53;;;16.00;1.00;;;;;;5006060;28;20606;-79
2022/10/16 01:24:17;;;;;;;6.67;2.50;;;16.00;1.00;;;;;;5006248;28;20826;-79
2022/10/16 01:27:14;;;;;;;6.73;2.63;;;16.00;1.00;;;;;;5006305;28;20464;-80
2022/10/16 01:29:50;;;;;;;6.10;2.67;;;15.90;1.00;;;;;;5001963;28;20462;-79
2022/10/16 01:32:21;;;;;;;6.53;3.03;;;15.90;1.00;;;;;;5006319;28;20906;-80
2022/10/16 01:34:53;;;;;;;7.10;3.63;;;16.00;1.00;;;;;;5007850;28;20464;-81
2022/10/16 01:37:28;;;;;;;6.77;3.50;;;16.00;1.00;;;;;;5008498;28;20473;-79
2022/10/16 01:39:59;;;;;;;6.93;3.20;;;16.00;1.00;;;;;;5006192;28;20465;-78
2022/10/16 01:42:31;;;;;;;6.40;2.80;;;16.00;1.00;;;;;;5003599;28;20475;-79
2022/10/16 01:45:01;;;;;;;6.10;3.00;;;16.00;1.00;;;;;;5008274;28;20492;-79
2022/10/16 01:47:30;;;;;;;6.20;2.97;;;16.00;1.00;;;;;;5009955;28;20474;-79
2022/10/16 01:49:59;;;;;;;7.10;3.33;;;15.90;1.00;;;;;;5005517;28;20418;-79
2022/10/16 01:52:29;;;;;;;7.30;3.33;;;15.90;1.00;;;;;;5006696;28;20465;-80
2022/10/16 01:55:01;;;;;;;6.50;3.60;;;16.00;1.00;;;;;;5014063;28;20414;-79
2022/10/16 01:57:30;;;;;;;6.50;2.93;;;16.00;1.00;;;;;;5014711;28;20566;-79
2022/10/16 02:00:08;;;;;;;8.30;2.97;;;15.90;1.00;;;;;;5005740;28;20410;-80
2022/10/16 02:02:38;;;;;;;6.10;3.00;;;15.90;1.00;;;;;;5024836;28;20493;-79
2022/10/16 02:05:20;;;;;;;6.07;2.63;;;15.90;1.00;;;;;;5008094;28;20433;-80
2022/10/16 02:07:59;;;;;;;8.60;3.70;;;15.90;1.00;;;;;;5007593;28;20431;-79
2022/10/16 02:10:33;;;;;;;7.00;3.17;;;15.90;1.00;;;;;;5008537;28;20433;-79
2022/10/16 02:13:05;;;;;;;6.60;3.00;;;15.90;1.00;;;;;;5015603;28;20462;-79
2022/10/16 02:15:38;;;;;;;7.63;2.63;;;15.90;1.00;;;;;;5012305;28;20475;-78
2022/10/16 02:18:10;;;;;;;6.40;2.63;;;15.90;1.00;;;;;;5021455;28;20443;-79
2022/10/16 02:20:49;;;;;;;6.20;2.80;;;16.00;1.00;;;;;;4999415;28;20426;-80
2022/10/16 02:23:27;;;;;;;7.00;3.13;;;16.00;1.00;;;;;;5006315;28;20470;-77
2022/10/16 02:25:59;;;;;;;7.40;3.17;;;16.00;1.00;;;;;;5014102;28;20483;-79
2022/10/16 02:28:39;;;;;;;7.33;2.97;;;16.10;1.00;;;;;;5017522;28;20458;-79
2022/10/16 02:31:23;;;;;;;6.57;2.90;;;16.10;1.00;;;;;;5003933;28;20429;-79
2022/10/16 02:33:51;;;;;;;6.63;2.33;;;16.20;1.00;;;;;;5003424;28;20486;-78
2022/10/16 02:36:23;;;;;;;6.17;2.63;;;16.20;1.00;;;;;;5016568;28;20495;-79
2022/10/16 02:38:51;;;;;;;6.70;2.83;;;16.30;1.00;;;;;;5018048;28;20434;-78
2022/10/16 02:41:21;;;;;;;6.77;3.07;;;16.20;1.00;;;;;;5016895;28;20478;-78
2022/10/16 02:43:50;;;;;;;7.63;2.80;;;16.30;1.00;;;;;;5006607;28;21214;-78
2022/10/16 02:46:20;;;;;;;7.17;2.90;;;16.30;1.00;;;;;;5001885;28;20443;-78
2022/10/16 02:48:50;;;;;;;6.63;2.50;;;16.20;1.00;;;;;;5015375;28;20434;-78
2022/10/16 02:51:22;;;;;;;6.33;2.57;;;16.30;1.00;;;;;;5009633;28;20411;-78
2022/10/16 02:53:50;;;;;;;6.30;2.47;;;16.40;1.00;;;;;;5004393;28;20464;-78
2022/10/16 02:56:20;;;;;;;7.57;2.73;;;16.40;1.00;;;;;;5033017;28;20436;-79
2022/10/16 02:58:51;;;;;;;8.93;2.83;;;16.40;1.00;;;;;;5033745;28;20431;-79
2022/10/16 03:01:22;;;;;;;6.50;2.70;;;16.50;1.00;;;;;;5028219;28;20421;-80
2022/10/16 03:03:52;;;;;;;6.80;2.77;;;16.40;1.00;;;;;;5019975;28;20460;-79
2022/10/16 03:06:20;;;;;;;6.57;2.47;;;16.40;1.00;;;;;;4999144;28;20446;-79
2022/10/16 03:08:49;;;;;;;7.00;2.60;;;16.30;1.00;;;;;;4992614;28;20437;-79
2022/10/16 03:11:16;;;;;;;7.17;3.53;;;16.20;1.00;;;;;;5031038;28;20475;-79
2022/10/16 03:13:43;;;;;;;7.30;3.17;;;16.20;1.00;;;;;;5024163;28;20870;-78
2022/10/16 03:16:10;;;;;;;7.00;2.53;;;16.20;1.00;;;;;;5029194;28;20464;-79
2022/10/16 03:18:38;;;;;;;6.70;2.70;;;16.20;1.00;;;;;;5028836;28;20556;-78
2022/10/16 03:21:05;;;;;;;6.57;2.73;;;16.10;1.00;;;;;;5025737;28;21228;-79
2022/10/16 03:23:32;;;;;;;6.33;2.60;;;16.20;1.00;;;;;;5023521;28;20514;-78
2022/10/16 03:25:58;;;;;;;5.77;2.30;;;16.20;1.00;;;;;;5024042;28;20434;-79
2022/10/16 03:28:25;;;;;;;6.60;2.60;;;16.10;1.00;;;;;;5025222;28;20830;-80
2022/10/16 03:30:53;;;;;;;6.40;2.77;;;16.10;1.00;;;;;;5025249;28;20488;-79
2022/10/16 03:33:21;;;;;;;6.20;2.70;;;16.20;1.00;;;;;;5019689;28;20869;-79
2022/10/16 03:35:53;;;;;;;6.40;2.63;;;16.20;1.00;;;;;;5027855;28;20621;-79
2022/10/16 03:38:21;;;;;;;7.17;3.13;;;16.20;1.00;;;;;;5024638;28;20464;-79
2022/10/16 03:40:48;;;;;;;5.80;2.40;;;16.10;1.00;;;;;;5026750;28;21030;-80
2022/10/16 03:43:15;;;;;;;6.77;2.73;;;16.20;1.00;;;;;;5025321;28;20481;-78
2022/10/16 03:45:42;;;;;;;7.80;2.73;;;16.20;1.00;;;;;;5028406;28;20548;-79
2022/10/16 03:48:09;;;;;;;8.13;2.67;;;16.20;1.00;;;;;;5028309;28;20467;-79
2022/10/16 03:50:36;;;;;;;6.43;2.60;;;16.10;1.00;;;;;;5027563;28;20500;-78
2022/10/16 03:53:04;;;;;;;5.73;2.20;;;16.00;1.00;;;;;;5026837;28;20462;-79
2022/10/16 03:55:31;;;;;;;6.60;2.93;;;16.00;1.00;;;;;;5008130;28;20988;-79
2022/10/16 03:57:58;;;;;;;8.53;3.10;;;16.00;1.00;;;;;;5008180;28;20451;-78
2022/10/16 04:00:25;;;;;;;6.93;2.60;;;15.90;1.00;;;;;;5008068;28;20458;-79
2022/10/16 04:02:54;;;;;;;6.33;2.80;;;15.90;1.00;;;;;;5003181;28;20476;-78
2022/10/16 04:05:21;;;;;;;6.00;2.80;;;15.80;1.00;;;;;;4997685;28;20465;-79
2022/10/16 04:07:48;;;;;;;7.10;3.17;;;15.80;1.00;;;;;;5002335;28;20552;-78
2022/10/16 04:10:16;;;;;;;7.07;3.13;;;15.90;1.00;;;;;;5005057;28;20957;-78
2022/10/16 04:12:43;;;;;;;8.40;3.03;;;15.90;1.00;;;;;;5003392;28;20490;-78
2022/10/16 04:15:10;;;;;;;6.40;2.90;;;15.80;1.00;;;;;;5000233;28;20465;-79
2022/10/16 04:17:41;;;;;;;6.53;3.33;;;15.80;1.00;;;;;;4999158;28;20439;-79
2022/10/16 04:20:09;;;;;;;6.63;2.83;;;15.80;1.00;;;;;;5001746;28;20450;-79
2022/10/16 04:22:35;;;;;;;6.43;2.63;;;15.70;1.00;;;;;;5005534;28;20490;-78
2022/10/16 04:25:02;;;;;;;7.70;3.30;;;15.80;1.00;;;;;;5001752;28;20461;-79
2022/10/16 04:27:31;;;;;;;7.23;3.10;;;15.80;1.00;;;;;;5003870;28;20547;-81
2022/10/16 04:29:58;;;;;;;6.63;3.20;;;15.80;1.00;;;;;;5002620;28;20463;-77
2022/10/16 04:32:25;;;;;;;6.40;2.63;;;15.80;1.00;;;;;;5006351;28;20477;-78
2022/10/16 04:34:51;;;;;;;6.40;3.40;;;15.70;1.00;;;;;;5000364;28;20465;-78
2022/10/16 04:37:18;;;;;;;6.50;2.63;;;15.70;1.00;;;;;;5005267;28;20463;-80
2022/10/16 04:39:45;;;;;;;6.73;2.77;;;15.70;1.00;;;;;;5002988;28;20455;-80
2022/10/16 04:42:12;;;;;;;7.40;3.43;;;15.60;1.00;;;;;;5009266;28;20950;-81
2022/10/16 04:44:41;;;;;;;7.93;2.90;;;15.60;1.00;;;;;;5005757;28;20450;-79
2022/10/16 04:47:08;;;;;;;9.10;3.40;;;15.60;1.00;;;;;;5005620;28;20464;-79
2022/10/16 04:49:35;;;;;;;6.50;2.97;;;15.40;1.00;;;;;;5007751;28;20505;-79
2022/10/16 04:52:02;;;;;;;6.80;3.23;;;15.40;1.00;;;;;;5005474;28;20473;-78
2022/10/16 04:54:29;;;;;;;6.00;3.00;;;15.40;1.00;;;;;;5004443;28;21162;-78
2022/10/16 04:56:56;;;;;;;5.83;2.50;;;15.40;1.00;;;;;;5008047;28;20501;-79
2022/10/16 04:59:23;;;;;;;7.00;2.70;;;15.40;1.00;;;;;;5005671;28;20481;-79
2022/10/16 05:01:53;;;;;;;6.80;3.47;;;15.40;1.00;;;;;;5006422;28;20477;-79
2022/10/16 05:04:21;;;;;;;6.10;3.17;;;15.20;1.00;;;;;;5003820;28;20581;-85
2022/10/16 05:06:50;;;;;;;6.50;3.50;;;15.20;1.00;;;;;;5003853;28;20484;-81
2022/10/16 05:09:17;;;;;;;8.57;3.67;;;15.20;1.00;;;;;;5005365;28;20556;-84
2022/10/16 05:11:43;;;;;;;9.30;4.40;;;15.20;1.00;;;;;;5004975;28;20482;-83
2022/10/16 05:14:16;;;;;;;7.60;4.10;;;15.20;1.00;;;;;;5009220;28;20520;-87
2022/10/16 05:16:51;;;;;;;7.57;4.00;;;15.20;1.00;;;;;;4977463;28;20562;-86
2022/10/16 05:19:24;;;;;;;7.83;3.53;;;15.30;1.00;;;;;;4996441;28;20512;-82
2022/10/16 05:21:53;;;;;;;7.57;3.47;;;15.30;1.00;;;;;;4974887;28;20477;-82
2022/10/16 05:24:21;;;;;;;6.97;3.50;;;15.30;1.00;;;;;;4995590;28;20559;-82
2022/10/16 05:26:54;;;;;;;6.80;3.40;;;15.30;1.00;;;;;;4992455;28;20457;-84
2022/10/16 05:29:23;;;;;;;6.57;3.43;;;15.30;1.00;;;;;;5009184;28;20545;-83
2022/10/16 05:31:53;;;;;;;6.63;3.33;;;15.30;1.00;;;;;;5013474;28;20545;-83
2022/10/16 05:34:24;;;;;;;6.87;3.77;;;15.30;1.00;;;;;;5017327;28;20464;-83
2022/10/16 05:36:52;;;;;;;7.73;3.83;;;15.20;1.00;;;;;;4988139;28;20462;-79
2022/10/16 05:39:18;;;;;;;8.13;4.40;;;15.20;1.00;;;;;;5004336;28;20492;-79
2022/10/16 05:41:47;;;;;;;8.40;4.37;;;15.20;1.00;;;;;;5007254;28;20867;-79
2022/10/16 05:44:14;;;;;;;7.87;4.90;;;15.10;1.00;;;;;;4999166;28;20473;-79
2022/10/16 05:46:41;;;;;;;8.00;4.60;;;15.10;1.00;;;;;;5004904;28;20476;-81
2022/10/16 05:49:09;;;;;;;9.13;4.60;;;15.10;1.00;;;;;;5006577;28;20485;-82
2022/10/16 05:51:38;;;;;;;8.83;4.27;;;15.10;1.00;;;;;;5008986;28;20481;-81
2022/10/16 05:54:04;;;;;;;8.50;3.40;;;15.10;1.00;;;;;;5008313;28;20846;-79
2022/10/16 05:56:31;;;;;;;7.43;3.83;;;15.20;1.00;;;;;;5007303;28;20490;-80
2022/10/16 05:58:58;;;;;;;7.10;3.73;;;15.30;1.00;;;;;;5003905;28;20466;-81
2022/10/16 06:01:25;;;;;;;7.20;4.50;;;15.30;1.00;;;;;;5006744;28;20522;-82
2022/10/16 06:03:53;;;;;;;6.90;3.70;;;15.20;1.00;;;;;;5010745;28;20552;-82
2022/10/16 06:06:23;;;;;;;6.90;3.77;;;15.20;1.00;;;;;;5009601;28;20469;-82
2022/10/16 06:08:52;;;;;;;8.77;4.20;;;15.20;1.00;;;;;;5004317;28;20468;-81
2022/10/16 06:11:21;;;;;;;8.30;4.60;;;15.30;1.00;;;;;;5008754;28;20485;-81
2022/10/16 06:13:50;;;;;;;7.63;4.33;;;15.30;1.00;;;;;;5007041;28;20470;-81
2022/10/16 06:16:17;;;;;;;10.57;5.80;;;15.30;1.00;;;;;;5004086;28;20473;-81
2022/10/16 06:18:44;;;;;;;9.13;4.73;;;15.30;1.00;;;;;;5006328;28;20466;-81
2022/10/16 06:21:12;;;;;;;7.30;4.60;;;15.40;1.00;;;;;;5005154;28;20470;-81
2022/10/16 06:23:40;;;;;;;8.73;4.93;;;15.50;1.00;;;;;;5004694;28;20471;-82
2022/10/16 06:26:11;;;;;;;7.80;4.10;;;15.60;1.00;;;;;;5007186;28;20973;-82
2022/10/16 06:28:38;;;;;;;7.20;3.90;;;15.70;1.00;;;;;;5007620;28;20546;-81
2022/10/16 06:31:09;;;;;;;7.53;3.63;;;15.80;1.00;;;;;;5009839;28;20552;-83
2022/10/16 06:33:36;;;;;;;7.40;3.77;;;15.70;1.00;;;;;;5009286;28;20461;-82
2022/10/16 06:36:04;;;;;;;7.90;3.63;;;15.60;1.00;;;;;;5008374;28;20461;-83
2022/10/16 06:38:31;;;;;;;7.63;3.63;;;15.60;1.00;;;;;;5007652;28;20514;-82
2022/10/16 06:40:59;;;;;;;6.97;4.00;;;15.80;1.00;;;;;;5009097;28;20477;-83
2022/10/16 06:43:31;;;;;;;6.90;3.53;;;15.80;1.00;;;;;;5006468;28;20466;-82
2022/10/16 06:45:59;;;;;;;7.47;4.13;;;15.90;1.00;;;;;;5010427;28;20528;-82
2022/10/16 06:48:26;;;;;;;7.47;4.13;;;16.00;1.00;;;;;;5007035;28;20989;-82
2022/10/16 06:50:57;;;;;;;7.30;4.13;;;16.10;1.00;;;;;;5007753;28;20457;-81
2022/10/16 06:53:28;;;;;;;6.90;3.30;;;16.10;1.00;;;;;;5007319;28;20490;-81
2022/10/16 06:55:55;;;;;;;7.00;3.40;;;16.20;1.00;;;;;;5008601;28;20471;-82
2022/10/16 06:58:22;;;;;;;6.60;3.57;;;16.20;1.00;;;;;;5004816;28;20461;-82
2022/10/16 07:00:56;;;;;;;7.17;3.67;;;16.30;1.00;;;;;;5006822;28;20521;-82
2022/10/16 07:03:26;;;;;;;9.30;3.67;;;16.30;1.00;;;;;;5009958;28;20538;-83
2022/10/16 07:05:52;;;;;;;8.27;3.73;;;16.40;1.00;;;;;;5009155;28;20836;-82
2022/10/16 07:08:19;;;;;;;6.60;3.20;;;16.40;1.00;;;;;;5010849;28;20469;-85
2022/10/16 07:10:46;;;;;;;6.50;3.00;;;16.40;1.00;;;;;;5011183;28;20846;-83
2022/10/16 07:13:14;;;;;;;6.80;3.10;;;16.50;1.00;;;;;;5013988;28;20562;-83
2022/10/16 07:15:41;;;;;;;6.30;3.07;;;16.70;1.00;;;;;;5013170;28;20880;-82
2022/10/16 07:18:09;;;;;;;7.57;3.47;;;16.90;1.00;;;;;;5012179;28;20446;-82
2022/10/16 07:20:37;;;;;;;6.80;2.50;;;17.10;1.00;;;;;;5012394;28;20945;-82
2022/10/16 07:23:04;;;;;;;6.90;2.90;;;17.30;1.00;;;;;;5014124;28;20861;-82
2022/10/16 07:25:30;;;;;;;7.43;3.03;;;17.50;1.00;;;;;;5014108;28;21207;-82
2022/10/16 07:27:57;;;;;;;8.20;3.10;;;17.50;1.00;;;;;;5011808;28;20422;-83
2022/10/16 07:30:24;;;;;;;6.40;2.53;;;17.40;1.00;;;;;;5012623;28;20453;-83
2022/10/16 07:32:50;;;;;;;6.17;2.73;;;17.50;1.00;;;;;;5011545;28;20450;-84
2022/10/16 07:35:19;;;;;;;5.80;2.10;;;17.60;1.00;;;;;;5013523;28;20466;-82
2022/10/16 07:37:48;;;;;;;6.67;2.67;;;17.70;1.00;;;;;;5012864;28;20463;-82
2022/10/16 07:40:15;;;;;;;6.10;2.53;;;17.80;1.00;;;;;;5012422;28;20525;-82
2022/10/16 07:42:43;;;;;;;6.23;2.40;;;17.80;1.00;;;;;;5002942;28;20849;-82
2022/10/16 07:45:11;;;;;;;6.60;2.43;;;17.80;1.00;;;;;;5011768;28;20912;-81
2022/10/16 07:47:37;;;;;;;6.67;2.73;;;17.80;1.00;;;;;;5013533;28;20462;-82
2022/10/16 07:50:07;;;;;;;6.60;2.90;;;17.70;1.00;;;;;;5013031;28;20430;-83
2022/10/16 07:52:35;;;;;;;6.63;2.80;;;17.80;1.00;;;;;;5011552;28;20466;-82
2022/10/16 07:55:03;;;;;;;6.20;2.10;;;17.80;1.00;;;;;;5008951;28;20486;-83
2022/10/16 07:57:30;;;;;;;5.83;2.07;;;17.80;1.00;;;;;;5008697;28;20469;-82
2022/10/16 07:59:56;;;;;;;6.03;2.23;;;17.80;1.00;;;;;;5006040;28;20473;-82
2022/10/16 08:02:24;;;;;;;6.70;2.07;;;17.80;1.00;;;;;;5012377;28;20573;-83
2022/10/16 08:04:51;;;;;;;6.37;2.00;;;17.80;1.00;;;;;;5001043;28;20463;-82
2022/10/16 08:07:17;;;;;;;7.50;1.77;;;17.80;1.00;;;;;;5009018;28;20508;-82
2022/10/16 08:09:50;;;;;;;5.90;2.00;;;17.90;1.00;;;;;;5010504;28;20988;-84
2022/10/16 08:12:18;;;;;;;7.23;2.10;;;18.00;1.00;;;;;;5011480;28;20581;-84
2022/10/16 08:14:48;;;;;;;5.60;1.90;;;18.10;1.00;;;;;;5018362;28;20443;-82
2022/10/16 08:17:16;;;;;;;5.80;2.07;;;18.10;1.00;;;;;;5018494;28;20505;-82
2022/10/16 08:19:46;;;;;;;5.93;1.80;;;18.20;1.00;;;;;;5015017;28;20485;-83
2022/10/16 08:22:13;;;;;;;6.80;2.43;;;18.30;1.00;;;;;;5015872;28;20475;-83
2022/10/16 08:24:39;;;;;;;7.70;2.50;;;18.40;1.00;;;;;;5014384;28;20464;-83
2022/10/16 08:27:09;;;;;;;6.87;2.00;;;18.50;1.00;;;;;;5014542;28;21254;-83
2022/10/16 08:29:38;;;;;;;6.97;2.10;;;18.60;1.00;;;;;;5016182;28;20945;-82
2022/10/16 08:32:06;;;;;;;5.87;1.80;;;18.80;1.00;;;;;;5013931;28;21178;-83
2022/10/16 08:34:32;;;;;;;7.60;2.13;;;19.00;1.00;;;;;;5013202;28;21161;-82
2022/10/16 08:36:59;;;;;;;8.87;2.23;;;19.10;1.00;;;;;;5010370;28;20449;-83
2022/10/16 08:39:26;;;;;;;6.43;1.90;;;19.10;1.00;;;;;;4995551;28;20501;-85
2022/10/16 08:42:12;;;;;;;7.40;2.30;;;19.10;1.00;;;;;;5014759;28;20497;-84
2022/10/16 08:45:14;;;;;;;5.63;1.40;;;19.10;1.00;;;;;;5013535;28;20557;-83
2022/10/16 08:47:50;;;;;;;7.20;3.87;;;19.10;1.00;;;;;;4999067;28;20442;-83
2022/10/16 08:50:25;;;;;;;6.20;1.70;;;19.00;1.00;;;;;;5017719;28;21006;-84
2022/10/16 08:52:52;;;;;;;5.37;1.80;;;19.00;1.00;;;;;;5010274;28;20927;-83
2022/10/16 08:55:30;;;;;;;5.60;1.80;;;19.00;1.00;;;;;;5027120;28;20888;-81
2022/10/16 08:58:00;;;;;;;5.53;1.90;;;19.00;1.00;;;;;;5030149;28;20519;-83
2022/10/16 09:00:28;;;;;;;5.60;2.17;;;19.00;1.00;;;;;;5037190;28;20478;-83
2022/10/16 09:03:04;;;;;;;6.20;1.77;;;18.90;1.00;;;;;;5031347;28;20524;-84
2022/10/16 09:06:02;;;;;;;5.77;1.97;;;18.90;1.00;;;;;;5023294;28;20505;-83
2022/10/16 09:08:38;;;;;;;7.27;1.87;;;18.80;1.00;;;;;;5031210;28;20541;-82
2022/10/16 09:11:10;;;;;;;5.73;2.00;;;18.70;1.00;;;;;;5030498;28;20862;-82
2022/10/16 09:13:49;;;;;;;5.57;1.80;;;18.90;1.00;;;;;;5033464;28;20492;-82
2022/10/16 09:16:21;;;;;;;5.40;1.73;;;19.40;1.00;;;;;;5028240;28;20454;-84
2022/10/16 09:18:58;;;;;;;5.73;1.80;;;19.90;1.00;;;;;;5028575;28;20546;-83
2022/10/16 09:21:28;;;;;;;6.70;1.90;;;20.10;1.00;;;;;;5037273;28;20895;-84
2022/10/16 09:23:59;;;;;;;5.27;1.50;;;20.10;1.00;;;;;;5038729;28;20480;-83
2022/10/16 09:26:26;;;;;;;6.60;1.90;;;20.00;1.00;;;;;;5028223;28;20540;-84
2022/10/16 09:28:55;;;;;;;6.37;2.00;;;20.10;1.00;;;;;;5021807;28;20465;-82
2022/10/16 09:31:23;;;;;;;6.37;2.20;;;20.10;1.00;;;;;;5038220;28;20477;-84
2022/10/16 09:33:55;;;;;;;7.33;1.97;;;20.30;1.00;;;;;;5004937;28;20486;-82
2022/10/16 09:36:25;;;;;;;6.20;2.30;;;20.50;1.00;;;;;;5012991;28;20425;-87
2022/10/16 09:39:04;;;;;;;5.57;1.47;;;20.70;1.00;;;;;;5029316;28;20492;-83
2022/10/16 09:41:31;;;;;;;5.20;1.60;;;20.80;1.00;;;;;;5030546;28;20449;-83
2022/10/16 09:44:04;;;;;;;7.80;2.00;;;20.80;1.00;;;;;;5030514;28;20472;-84
2022/10/16 09:46:34;;;;;;;5.80;1.47;;;20.80;1.00;;;;;;5032467;28;20584;-82
2022/10/16 09:49:05;;;;;;;7.40;2.27;;;20.80;1.00;;;;;;5033643;28;20461;-83
2022/10/16 09:51:35;;;;;;;5.37;1.50;;;21.00;1.00;;;;;;5036081;28;20477;-83
2022/10/16 09:54:03;;;;;;;5.40;1.73;;;21.20;1.00;;;;;;5032553;28;20450;-83
2022/10/16 09:56:39;;;;;;;5.77;1.60;;;21.30;1.00;;;;;;5010052;28;20584;-80
2022/10/16 09:59:13;;;;;;;5.73;1.73;;;21.40;1.00;;;;;;4997551;28;20449;-81
2022/10/16 10:01:42;;;;;;;5.50;1.67;;;21.40;1.00;;;;;;5015641;28;20520;-78
2022/10/16 10:04:12;;;;;;;7.83;2.00;;;21.30;1.00;;;;;;5015901;28;21220;-77
2022/10/16 10:06:45;;;;;;;5.73;1.93;;;21.20;1.00;;;;;;5010294;28;20422;-79
2022/10/16 10:09:32;;;;;;;6.37;2.37;;;21.10;1.00;;;;;;5014749;28;20455;-79
2022/10/16 10:12:00;;;;;;;5.03;1.70;;;21.30;1.00;;;;;;4988481;28;20470;-79
2022/10/16 10:14:36;;;;;;;6.23;2.57;;;21.50;1.00;;;;;;5013502;28;20430;-79
2022/10/16 10:17:19;;;;;;;5.40;1.53;;;21.50;1.00;;;;;;5014868;28;20430;-79
2022/10/16 10:19:51;;;;;;;5.00;1.53;;;21.60;1.00;;;;;;5006982;28;20476;-80
2022/10/16 10:22:41;;;;;;;6.23;1.67;;;21.80;1.00;;;;;;5010778;28;20455;-78
2022/10/16 10:25:26;;;;;;;6.20;1.40;;;22.00;1.00;;;;;;5002036;28;20513;-79
2022/10/16 10:28:21;;;;;;;11.13;2.47;;;22.00;1.00;;;;;;5010199;28;20485;-80
2022/10/16 10:30:57;;;;;;;6.33;1.70;;;22.00;1.00;;;;;;5004575;28;20423;-80
2022/10/16 10:33:41;;;;;;;18.20;4.37;;;22.00;1.00;;;;;;5012173;28;20477;-80
2022/10/16 10:36:18;;;;;;;5.83;2.07;;;21.80;1.00;;;;;;5009115;28;20455;-79
2022/10/16 10:38:56;;;;;;;6.17;1.70;;;21.70;1.00;;;;;;5011598;28;20509;-79
2022/10/16 10:42:14;;;;;;;5.47;1.97;;;21.80;1.00;;;;;;5006781;28;20471;-80
2022/10/16 10:45:01;;;;;;;5.20;1.63;;;22.10;1.00;;;;;;5011146;28;20470;-82
2022/10/16 10:47:43;;;;;;;5.83;1.70;;;21.90;1.00;;;;;;5010405;28;20535;-78
2022/10/16 10:50:20;;;;;;;6.97;1.80;;;22.00;1.00;;;;;;5015814;28;20568;-79
2022/10/16 10:52:59;;;;;;;9.20;1.93;;;22.30;1.00;;;;;;5006658;28;20476;-79
2022/10/16 10:55:38;;;;;;;7.17;2.00;;;22.80;1.00;;;;;;5010975;28;20919;-79
2022/10/16 10:58:45;;;;;;;5.83;1.53;;;23.00;1.00;;;;;;5011897;28;20462;-78
2022/10/16 11:01:18;;;;;;;8.10;1.70;;;23.00;1.00;;;;;;4978715;28;21090;-78
2022/10/16 11:04:05;;;;;;;5.30;1.70;;;22.80;1.00;;;;;;5008879;28;20475;-78
2022/10/16 11:06:37;;;;;;;5.83;1.50;;;22.80;1.00;;;;;;5009506;28;20537;-78
2022/10/16 11:09:12;;;;;;;5.80;1.50;;;23.60;1.00;;;;;;5009965;28;21061;-80
2022/10/16 11:11:43;;;;;;;6.90;1.70;;;24.70;1.00;;;;;;5009315;28;20858;-78
2022/10/16 11:14:16;;;;;;;5.40;1.20;;;25.90;1.00;;;;;;5009104;28;20488;-79
2022/10/16 11:16:49;;;;;;;6.00;1.50;;;28.20;1.00;;;;;;5007340;28;20484;-79
2022/10/16 11:19:27;;;;;;;4.73;1.37;;;29.60;1.00;;;;;;5006325;28;20473;-78
2022/10/16 11:22:02;;;;;;;5.10;2.17;;;30.20;1.00;;;;;;5008234;28;20461;-80
2022/10/16 11:24:38;;;;;;;4.40;1.30;;;29.70;1.00;;;;;;5007533;28;20465;-77
2022/10/16 11:27:09;;;;;;;7.97;1.60;;;28.40;1.00;;;;;;5008730;28;20472;-79
2022/10/16 11:29:41;;;;;;;5.93;1.27;;;27.20;1.00;;;;;;5008364;28;20450;-82
2022/10/16 11:32:23;;;;;;;5.00;1.20;;;26.50;1.00;;;;;;4997794;28;20462;-78
2022/10/16 11:34:56;;;;;;;5.23;1.40;;;25.70;1.00;;;;;;4980516;28;20479;-78
2022/10/16 11:37:28;;;;;;;4.93;2.43;;;25.20;1.00;;;;;;5007716;28;20471;-79
2022/10/16 11:40:04;;;;;;;5.10;1.00;;;24.80;1.00;;;;;;5007276;28;20949;-79
2022/10/16 11:42:37;;;;;;;4.87;1.33;;;25.00;1.00;;;;;;5008431;28;20857;-79
2022/10/16 11:45:18;;;;;;;5.40;1.07;;;25.70;1.00;;;;;;5010210;28;20470;-80
2022/10/16 11:47:52;;;;;;;5.10;1.60;;;27.00;1.00;;;;;;5011486;28;20878;-80
2022/10/16 11:50:26;;;;;;;4.70;1.10;;;28.30;1.00;;;;;;5011488;28;20460;-79
2022/10/16 11:52:59;;;;;;;5.60;1.20;;;29.40;1.00;;;;;;5010689;28;20485;-78
2022/10/16 11:55:33;;;;;;;5.20;1.17;;;30.10;1.00;;;;;;5009025;28;20451;-79
2022/10/16 11:58:06;;;;;;;5.43;1.50;;;29.90;1.00;;;;;;4973906;28;20488;-79
2022/10/16 12:00:40;;;;;;;6.50;3.43;;;28.80;1.00;;;;;;5011371;28;20475;-79
2022/10/16 12:03:19;;;;;;;5.80;1.47;;;27.40;1.00;;;;;;5010622;28;20458;-80
2022/10/16 12:06:03;;;;;;;4.97;1.33;;;26.40;1.00;;;;;;5008889;28;20550;-79
2022/10/16 12:08:34;;;;;;;4.50;1.23;;;26.30;1.00;;;;;;5011147;28;20647;-80
2022/10/16 12:11:09;;;;;;;6.30;1.70;;;26.40;1.00;;;;;;5011389;28;20935;-79
2022/10/16 12:13:38;;;;;;;5.90;1.90;;;25.70;1.00;;;;;;5011016;28;20476;-79
2022/10/16 12:16:24;;;;;;;5.20;1.30;;;25.40;1.00;;;;;;4992920;28;20475;-80
2022/10/16 12:19:03;;;;;;;4.77;1.53;;;25.10;1.00;;;;;;5010431;28;20476;-79
2022/10/16 12:21:34;;;;;;;6.10;1.30;;;24.80;1.00;;;;;;5013436;28;20476;-80
2022/10/16 12:24:05;;;;;;;4.40;1.00;;;24.60;1.00;;;;;;5008042;28;20481;-80
2022/10/16 12:26:35;;;;;;;5.23;1.57;;;24.50;1.00;;;;;;5011417;28;20465;-78
2022/10/16 12:29:15;;;;;;;5.17;1.03;;;24.30;1.00;;;;;;5011349;28;20476;-78
2022/10/16 12:31:46;;;;;;;5.53;1.20;;;24.00;1.00;;;;;;5007612;28;20995;-80
2022/10/16 12:34:23;;;;;;;4.63;1.37;;;23.80;1.00;;;;;;5010888;28;20925;-80
2022/10/16 12:36:52;;;;;;;4.80;0.90;;;23.50;1.00;;;;;;5017275;28;20497;-78
2022/10/16 12:39:23;;;;;;;5.03;1.00;;;23.40;1.00;;;;;;5012395;28;20576;-81
2022/10/16 12:42:03;;;;;;;4.30;1.10;;;23.40;1.00;;;;;;5010739;28;20476;-81
2022/10/16 12:44:34;;;;;;;5.90;1.30;;;23.80;1.00;;;;;;5013449;28;20470;-80
2022/10/16 12:47:01;;;;;;;4.70;0.97;;;24.50;1.00;;;;;;5009297;28;21003;-80
2022/10/16 12:49:36;;;;;;;5.83;1.37;;;24.90;1.00;;;;;;5012283;28;20560;-79
2022/10/16 12:52:05;;;;;;;4.90;1.13;;;24.90;1.00;;;;;;5007937;28;20485;-82
2022/10/16 12:54:37;;;;;;;4.93;1.20;;;25.20;1.00;;;;;;5009730;28;20585;-79
2022/10/16 12:57:25;;;;;;;5.53;1.27;;;25.30;1.00;;;;;;5007743;28;20447;-80
2022/10/16 12:59:58;;;;;;;4.70;1.10;;;25.40;1.00;;;;;;5007894;28;20470;-78
2022/10/16 13:03:03;;;;;;;4.63;1.40;;;25.20;1.00;;;;;;5011433;28;20462;-78
2022/10/16 13:06:08;;;;;;;5.50;1.47;;;24.80;1.00;;;;;;5014029;28;20468;-79
2022/10/16 13:08:59;;;;;;;4.70;1.10;;;24.30;1.00;;;;;;5008791;28;20473;-79
2022/10/16 13:11:39;;;;;;;4.63;1.03;;;24.30;1.00;;;;;;5008459;28;20471;-79
2022/10/16 13:14:29;;;;;;;4.50;0.90;;;25.10;1.00;;;;;;5012174;28;20963;-79
2022/10/16 13:17:05;;;;;;;5.23;1.13;;;26.50;1.00;;;;;;5011847;28;20465;-82
2022/10/16 13:19:42;;;;;;;4.50;1.20;;;26.80;1.00;;;;;;5012296;28;20994;-78
2022/10/16 13:22:17;;;;;;;6.40;1.57;;;25.90;1.00;;;;;;4997800;28;20470;-80